createdAt,value
2023-05-01T00:02:04.087Z,2.17
2023-05-01T00:04:30.607Z,2.03
2023-05-01T00:06:57.721Z,2.40
2023-05-01T00:09:24.149Z,2.67
2023-05-01T00:11:50.603Z,2.30
2023-05-01T00:14:17.875Z,2.50
2023-05-01T00:16:46.189Z,2.63
2023-05-01T00:19:12.951Z,2.20
2023-05-01T00:21:39.383Z,1.88
2023-05-01T00:24:06.076Z,2.28
2023-05-01T00:26:32.482Z,3.00
2023-05-01T00:28:58.888Z,2.92
2023-05-01T00:31:26.032Z,2.47
2023-05-01T00:33:52.724Z,2.70
2023-05-01T00:36:19.251Z,2.20
2023-05-01T00:38:46.362Z,3.15
2023-05-01T00:41:12.829Z,2.80
2023-05-01T00:43:39.268Z,2.20
2023-05-01T00:46:06.220Z,2.53
2023-05-01T00:48:32.716Z,2.58
2023-05-01T00:51:04.703Z,2.42
2023-05-01T00:53:31.218Z,2.50
2023-05-01T00:55:58.609Z,2.30
2023-05-01T01:06:09.042Z,2.17
2023-05-01T01:09:10.185Z,2.65
2023-05-01T01:11:46.461Z,2.33
2023-05-01T01:14:21.630Z,2.40
2023-05-01T01:16:57.099Z,3.00
2023-05-01T01:19:44.807Z,2.13
2023-05-01T01:22:18.701Z,3.03
2023-05-01T01:24:58.270Z,2.37
2023-05-01T01:27:54.673Z,2.55
2023-05-01T01:30:41.365Z,2.88
2023-05-01T01:33:32.950Z,2.53
2023-05-01T01:36:07.010Z,2.50
2023-05-01T01:38:43.568Z,2.33
2023-05-01T01:41:22.719Z,2.03
2023-05-01T01:44:07.882Z,2.40
2023-05-01T01:46:38.493Z,2.35
2023-05-01T01:49:15.984Z,2.17
2023-05-01T01:51:43.703Z,2.20
2023-05-01T01:54:15.105Z,2.45
2023-05-01T01:56:42.790Z,2.30
2023-05-01T01:59:11.056Z,2.78
2023-05-01T02:01:40.786Z,2.67
2023-05-01T02:04:08.712Z,2.47
2023-05-01T02:06:36.688Z,2.75
2023-05-01T02:09:06.474Z,2.47
2023-05-01T02:11:35.491Z,2.83
2023-05-01T02:14:03.711Z,2.55
2023-05-01T02:16:32.897Z,3.20
2023-05-01T02:19:00.840Z,2.60
2023-05-01T02:21:31.086Z,2.22
2023-05-01T02:24:01.408Z,2.78
2023-05-01T02:26:29.605Z,2.53
2023-05-01T02:28:56.064Z,2.10
2023-05-01T02:31:23.146Z,2.72
2023-05-01T02:33:49.830Z,2.63
2023-05-01T02:36:16.287Z,3.05
2023-05-01T02:38:43.168Z,2.83
2023-05-01T02:41:11.910Z,2.70
2023-05-01T02:43:40.229Z,2.45
2023-05-01T02:46:07.831Z,2.30
2023-05-01T02:48:35.254Z,2.60
2023-05-01T02:51:03.582Z,2.75
2023-05-01T02:53:30.929Z,2.50
2023-05-01T02:55:57.721Z,2.08
2023-05-01T02:58:24.535Z,2.97
2023-05-01T03:00:51.107Z,2.38
2023-05-01T03:03:17.947Z,2.63
2023-05-01T03:05:44.508Z,3.00
2023-05-01T03:08:11.200Z,2.42
2023-05-01T03:10:40.098Z,3.17
2023-05-01T03:13:06.640Z,2.22
2023-05-01T03:15:33.119Z,3.20
2023-05-01T03:17:59.581Z,2.33
2023-05-01T03:20:27.439Z,2.92
2023-05-01T03:22:54.086Z,2.80
2023-05-01T03:25:20.517Z,2.88
2023-05-01T03:27:47.019Z,3.25
2023-05-01T03:30:13.471Z,2.17
2023-05-01T03:32:40.017Z,2.97
2023-05-01T03:35:07.816Z,2.88
2023-05-01T03:37:34.319Z,2.28
2023-05-01T03:40:01.060Z,2.45
2023-05-01T03:42:27.650Z,2.57
2023-05-01T03:44:54.100Z,2.45
2023-05-01T03:47:20.558Z,2.50
2023-05-01T03:49:47.513Z,2.30
2023-05-01T03:52:14.902Z,2.67
2023-05-01T03:54:41.381Z,2.77
2023-05-01T03:57:07.892Z,2.78
2023-05-01T03:59:35.374Z,3.00
2023-05-01T04:02:01.901Z,2.85
2023-05-01T04:04:29.763Z,3.00
2023-05-01T04:06:56.609Z,2.53
2023-05-01T04:09:23.018Z,3.00
2023-05-01T04:11:49.447Z,2.97
2023-05-01T04:14:15.888Z,2.97
2023-05-01T04:16:43.211Z,3.38
2023-05-01T04:19:10.358Z,2.53
2023-05-01T04:21:36.877Z,2.83
2023-05-01T04:24:03.364Z,3.17
2023-05-01T04:26:29.838Z,2.92
2023-05-01T04:28:56.455Z,3.03
2023-05-01T04:31:22.935Z,3.40
2023-05-01T04:33:49.346Z,3.25
2023-05-01T04:36:16.031Z,2.97
2023-05-01T04:38:42.512Z,2.88
2023-05-01T04:41:09.386Z,2.65
2023-05-01T04:43:35.852Z,2.47
2023-05-01T04:46:04.610Z,3.47
2023-05-01T04:48:31.030Z,3.22
2023-05-01T04:50:57.625Z,3.35
2023-05-01T04:53:24.113Z,3.30
2023-05-01T04:55:50.736Z,2.73
2023-05-01T04:58:17.147Z,2.70
2023-05-01T05:00:43.576Z,2.47
2023-05-01T05:03:10.197Z,2.83
2023-05-01T05:05:36.722Z,3.10
2023-05-01T05:08:03.148Z,3.10
2023-05-01T05:10:29.615Z,3.30
2023-05-01T05:12:56.898Z,3.10
2023-05-01T05:15:23.308Z,3.55
2023-05-01T05:17:49.792Z,3.35
2023-05-01T05:20:16.434Z,2.73
2023-05-01T05:22:43.037Z,3.33
2023-05-01T05:25:09.556Z,3.20
2023-05-01T05:27:38.327Z,3.10
2023-05-01T05:30:06.013Z,2.78
2023-05-01T05:32:32.834Z,3.43
2023-05-01T05:34:59.667Z,2.88
2023-05-01T05:37:26.195Z,3.03
2023-05-01T05:39:53.231Z,2.75
2023-05-01T05:42:20.108Z,3.08
2023-05-01T05:44:46.535Z,3.60
2023-05-01T05:47:12.963Z,3.28
2023-05-01T05:49:39.500Z,3.15
2023-05-01T05:52:05.978Z,3.65
2023-05-01T05:54:32.581Z,2.92
2023-05-01T05:56:58.980Z,3.10
2023-05-01T05:59:25.473Z,3.10
2023-05-01T06:01:52.590Z,2.80
2023-05-01T06:04:19.081Z,2.88
2023-05-01T06:06:45.620Z,2.80
2023-05-01T06:09:12.939Z,3.13
2023-05-01T06:11:39.419Z,3.47
2023-05-01T06:14:05.929Z,2.90
2023-05-01T06:16:32.709Z,3.50
2023-05-01T06:18:59.274Z,3.30
2023-05-01T06:21:25.781Z,3.23
2023-05-01T06:23:52.386Z,3.08
2023-05-01T06:26:18.944Z,2.58
2023-05-01T06:28:45.375Z,3.47
2023-05-01T06:31:11.783Z,3.22
2023-05-01T06:33:38.276Z,3.10
2023-05-01T06:36:05.000Z,2.97
2023-05-01T06:38:32.912Z,3.53
2023-05-01T06:40:59.370Z,3.38
2023-05-01T06:43:30.832Z,3.42
2023-05-01T06:45:57.627Z,2.60
2023-05-01T06:48:24.101Z,3.55
2023-05-01T06:50:50.745Z,3.47
2023-05-01T06:53:17.200Z,3.38
2023-05-01T06:55:43.605Z,3.72
2023-05-01T06:58:22.626Z,3.27
2023-05-01T07:00:50.476Z,3.90
2023-05-01T07:03:17.172Z,3.50
2023-05-01T07:05:43.752Z,3.50
2023-05-01T07:08:10.483Z,3.58
2023-05-01T07:10:37.542Z,3.40
2023-05-01T07:13:05.160Z,3.92
2023-05-01T07:15:31.745Z,3.33
2023-05-01T07:17:58.410Z,3.30
2023-05-01T07:20:24.928Z,3.45
2023-05-01T07:22:51.311Z,3.27
2023-05-01T07:25:17.930Z,3.85
2023-05-01T07:27:44.376Z,3.35
2023-05-01T07:30:11.281Z,3.13
2023-05-01T07:32:37.888Z,3.72
2023-05-01T07:35:05.054Z,3.67
2023-05-01T07:37:31.484Z,3.20
2023-05-01T07:39:58.822Z,3.45
2023-05-01T07:42:27.506Z,3.90
2023-05-01T07:44:53.931Z,3.33
2023-05-01T07:47:20.388Z,4.17
2023-05-01T07:49:46.794Z,4.45
2023-05-01T07:52:13.408Z,4.15
2023-05-01T07:54:40.246Z,3.80
2023-05-01T07:57:06.732Z,3.55
2023-05-01T07:59:33.161Z,3.77
2023-05-01T08:01:59.751Z,3.72
2023-05-01T08:04:27.863Z,4.10
2023-05-01T08:06:54.476Z,3.65
2023-05-01T08:09:21.026Z,3.55
2023-05-01T08:11:47.399Z,3.80
2023-05-01T08:14:13.833Z,4.25
2023-05-01T08:16:40.328Z,3.92
2023-05-01T08:19:06.870Z,4.03
2023-05-01T08:21:33.319Z,3.40
2023-05-01T08:23:59.917Z,4.47
2023-05-01T08:26:26.362Z,3.53
2023-05-01T08:28:52.854Z,3.63
2023-05-01T08:31:19.483Z,4.05
2023-05-01T08:33:46.140Z,4.05
2023-05-01T08:36:12.641Z,4.57
2023-05-01T08:38:39.143Z,4.22
2023-05-01T08:41:06.278Z,4.30
2023-05-01T08:43:33.377Z,5.30
2023-05-01T08:46:04.112Z,4.50
2023-05-01T08:48:32.618Z,4.07
2023-05-01T08:51:00.631Z,4.10
2023-05-01T08:53:28.583Z,4.57
2023-05-01T08:55:56.641Z,4.05
2023-05-01T08:58:24.832Z,3.80
2023-05-01T09:00:51.510Z,4.30
2023-05-01T09:03:19.311Z,4.30
2023-05-01T09:05:46.733Z,4.63
2023-05-01T09:08:13.160Z,3.67
2023-05-01T09:10:45.187Z,3.80
2023-05-01T09:13:12.471Z,3.87
2023-05-01T09:15:38.958Z,3.80
2023-05-01T09:18:05.662Z,4.32
2023-05-01T09:20:32.669Z,3.90
2023-05-01T09:22:59.292Z,4.10
2023-05-01T09:25:25.871Z,3.70
2023-05-01T09:27:52.646Z,4.20
2023-05-01T09:30:36.536Z,4.18
2023-05-01T09:33:10.370Z,4.28
2023-05-01T09:35:54.363Z,4.45
2023-05-01T09:38:23.011Z,3.83
2023-05-01T09:40:50.085Z,3.20
2023-05-01T09:43:30.292Z,3.55
2023-05-01T09:46:09.552Z,3.50
2023-05-01T09:48:37.596Z,3.83
2023-05-01T09:51:23.925Z,4.20
2023-05-01T09:53:52.218Z,4.38
2023-05-01T09:56:19.755Z,4.15
2023-05-01T09:58:46.757Z,4.70
2023-05-01T10:01:13.355Z,3.80
2023-05-01T10:03:40.205Z,3.43
2023-05-01T10:06:07.224Z,3.42
2023-05-01T10:08:50.598Z,4.00
2023-05-01T10:11:17.119Z,4.20
2023-05-01T10:13:43.610Z,3.60
2023-05-01T10:16:29.760Z,3.67
2023-05-01T10:19:00.082Z,3.85
2023-05-01T10:21:27.868Z,3.78
2023-05-01T10:23:55.739Z,3.47
2023-05-01T10:26:22.219Z,3.58
2023-05-01T10:28:49.556Z,3.33
2023-05-01T10:31:16.663Z,3.45
2023-05-01T10:33:46.999Z,3.35
2023-05-01T10:36:22.619Z,2.83
2023-05-01T10:38:49.207Z,3.15
2023-05-01T10:41:16.577Z,2.97
2023-05-01T10:43:43.634Z,2.75
2023-05-01T10:46:10.128Z,2.33
2023-05-01T10:48:40.079Z,2.60
2023-05-01T10:51:17.860Z,3.05
2023-05-01T10:53:46.365Z,3.03
2023-05-01T10:56:23.838Z,2.90
2023-05-01T10:58:53.280Z,2.95
2023-05-01T11:01:35.090Z,3.20
2023-05-01T11:04:23.515Z,3.10
2023-05-01T11:07:03.745Z,3.90
2023-05-01T11:09:44.195Z,3.22
2023-05-01T11:12:12.978Z,3.38
2023-05-01T11:14:55.787Z,3.67
2023-05-01T11:17:40.960Z,3.13
2023-05-01T11:20:29.124Z,3.87
2023-05-01T11:22:57.337Z,3.30
2023-05-01T11:25:24.485Z,2.72
2023-05-01T11:27:53.033Z,2.60
2023-05-01T11:30:20.268Z,3.42
2023-05-01T11:32:48.769Z,3.03
2023-05-01T11:35:29.825Z,2.95
2023-05-01T11:37:56.498Z,2.65
2023-05-01T11:40:24.898Z,2.85
2023-05-01T11:43:00.211Z,2.75
2023-05-01T11:45:26.934Z,3.27
2023-05-01T11:47:53.680Z,3.03
2023-05-01T11:50:21.942Z,3.13
2023-05-01T11:52:50.056Z,3.17
2023-05-01T11:55:16.881Z,3.60
2023-05-01T11:57:53.409Z,3.00
2023-05-01T12:00:31.000Z,2.75
2023-05-01T12:02:59.426Z,3.20
2023-05-01T12:05:28.379Z,3.03
2023-05-01T12:08:13.147Z,2.80
2023-05-01T12:10:43.088Z,3.20
2023-05-01T12:13:12.192Z,3.45
2023-05-01T12:15:52.475Z,3.47
2023-05-01T12:18:21.336Z,3.15
2023-05-01T12:20:51.991Z,4.03
2023-05-01T12:23:20.381Z,3.53
2023-05-01T12:25:47.030Z,3.22
2023-05-01T12:28:15.735Z,3.42
2023-05-01T12:30:43.432Z,2.50
2023-05-01T12:33:14.716Z,4.40
2023-05-01T12:35:42.458Z,3.93
2023-05-01T12:38:12.846Z,4.10
2023-05-01T12:41:00.593Z,4.72
2023-05-01T12:43:32.272Z,4.32
2023-05-01T12:45:59.395Z,4.78
2023-05-01T12:48:26.302Z,4.20
2023-05-01T12:50:54.973Z,3.92
2023-05-01T12:53:26.290Z,3.88
2023-05-01T12:55:55.243Z,4.15
2023-05-01T12:58:22.107Z,4.30
2023-05-01T13:00:54.645Z,3.77
2023-05-01T13:03:26.894Z,3.60
2023-05-01T13:06:04.036Z,3.80
2023-05-01T13:08:32.789Z,3.83
2023-05-01T13:11:01.343Z,3.58
2023-05-01T13:13:30.636Z,4.13
2023-05-01T13:16:12.286Z,3.83
2023-05-01T13:18:57.236Z,3.70
2023-05-01T13:21:24.920Z,3.65
2023-05-01T13:24:01.317Z,3.60
2023-05-01T13:26:35.959Z,3.70
2023-05-01T13:29:04.016Z,4.18
2023-05-01T13:31:30.853Z,4.63
2023-05-01T13:33:59.402Z,4.20
2023-05-01T13:36:27.510Z,3.75
2023-05-01T13:38:56.999Z,3.50
2023-05-01T13:41:26.051Z,3.60
2023-05-01T13:43:54.253Z,3.22
2023-05-01T13:46:22.934Z,3.53
2023-05-01T13:48:49.674Z,3.65
2023-05-01T13:51:24.038Z,3.30
2023-05-01T13:53:53.482Z,2.90
2023-05-01T13:56:21.861Z,3.22
2023-05-01T13:58:50.101Z,2.65
2023-05-01T14:01:19.009Z,2.63
2023-05-01T14:03:45.952Z,3.80
2023-05-01T14:06:17.882Z,2.90
2023-05-01T14:08:46.768Z,3.03
2023-05-01T14:11:13.802Z,3.00
2023-05-01T14:13:41.543Z,3.30
2023-05-01T14:16:12.254Z,3.40
2023-05-01T14:18:46.067Z,2.92
2023-05-01T14:21:14.888Z,3.35
2023-05-01T14:23:44.300Z,3.80
2023-05-01T14:26:17.058Z,3.25
2023-05-01T14:28:44.629Z,2.87
2023-05-01T14:31:17.298Z,3.22
2023-05-01T14:33:44.030Z,2.78
2023-05-01T14:36:12.434Z,3.10
2023-05-01T14:38:40.417Z,3.38
2023-05-01T14:41:08.337Z,3.30
2023-05-01T14:43:41.625Z,2.92
2023-05-01T14:46:08.261Z,2.83
2023-05-01T14:48:36.465Z,2.50
2023-05-01T14:51:10.496Z,3.15
2023-05-01T14:53:37.556Z,3.10
2023-05-01T14:56:04.348Z,2.83
2023-05-01T14:58:30.857Z,3.10
2023-05-01T15:00:57.507Z,3.17
2023-05-01T15:03:24.138Z,3.38
2023-05-01T15:05:50.933Z,3.23
2023-05-01T15:08:17.454Z,3.10
2023-05-01T15:10:45.025Z,2.83
2023-05-01T15:13:11.488Z,3.40
2023-05-01T15:15:37.998Z,2.85
2023-05-01T15:18:04.467Z,3.43
2023-05-01T15:20:31.338Z,3.58
2023-05-01T15:22:57.766Z,3.63
2023-05-01T15:25:24.221Z,3.92
2023-05-01T15:27:51.408Z,4.00
2023-05-01T15:30:17.870Z,4.43
2023-05-01T15:32:44.635Z,3.63
2023-05-01T15:35:11.189Z,4.15
2023-05-01T15:37:37.627Z,4.13
2023-05-01T15:40:05.457Z,3.42
2023-05-01T15:42:31.929Z,3.40
2023-05-01T15:44:58.829Z,3.83
2023-05-01T15:47:25.887Z,3.50
2023-05-01T15:49:52.326Z,4.10
2023-05-01T15:52:18.801Z,4.13
2023-05-01T15:54:48.311Z,3.70
2023-05-01T15:57:17.749Z,4.07
2023-05-01T15:59:44.756Z,4.50
2023-05-01T16:02:11.299Z,3.83
2023-05-01T16:04:38.870Z,4.70
2023-05-01T16:07:06.248Z,4.50
2023-05-01T16:09:34.486Z,4.13
2023-05-01T16:12:03.365Z,4.68
2023-05-01T16:14:31.104Z,4.22
2023-05-01T16:16:57.724Z,4.80
2023-05-01T16:19:24.160Z,4.60
2023-05-01T16:21:50.640Z,5.63
2023-05-01T16:24:17.276Z,5.43
2023-05-01T16:26:44.253Z,4.93
2023-05-01T16:29:10.802Z,5.57
2023-05-01T16:31:47.373Z,5.60
2023-05-01T16:34:15.387Z,5.50
2023-05-01T16:36:42.822Z,5.13
2023-05-01T16:39:22.263Z,5.80
2023-05-01T16:41:50.898Z,5.13
2023-05-01T16:44:19.282Z,5.67
2023-05-01T16:46:57.307Z,6.65
2023-05-01T16:49:24.926Z,6.15
2023-05-01T16:51:54.869Z,7.07
2023-05-01T16:54:21.596Z,7.65
2023-05-01T16:56:48.237Z,7.83
2023-05-01T16:59:15.811Z,7.55
2023-05-01T17:01:42.393Z,7.80
2023-05-01T17:04:08.901Z,7.78
2023-05-01T17:06:35.556Z,7.97
2023-05-01T17:09:02.210Z,7.60
2023-05-01T17:11:31.118Z,6.57
2023-05-01T17:13:58.319Z,7.18
2023-05-01T17:16:24.929Z,7.15
2023-05-01T17:18:51.564Z,7.25
2023-05-01T17:21:18.604Z,7.20
2023-05-01T17:23:45.362Z,7.25
2023-05-01T17:26:13.430Z,6.75
2023-05-01T17:28:39.913Z,7.28
2023-05-01T17:31:06.369Z,6.75
2023-05-01T17:33:32.909Z,6.87
2023-05-01T17:36:00.706Z,7.50
2023-05-01T17:38:27.242Z,7.28
2023-05-01T17:40:53.690Z,7.63
2023-05-01T17:43:20.761Z,7.95
2023-05-01T17:45:47.953Z,7.43
2023-05-01T17:48:14.492Z,7.32
2023-05-01T17:50:41.386Z,7.65
2023-05-01T17:53:09.411Z,8.55
2023-05-01T17:55:37.039Z,7.68
2023-05-01T17:58:03.444Z,8.00
2023-05-01T18:00:32.390Z,8.93
2023-05-01T18:02:59.254Z,8.77
2023-05-01T18:05:26.114Z,8.55
2023-05-01T18:07:52.510Z,8.88
2023-05-01T18:10:18.984Z,9.63
2023-05-01T18:12:47.024Z,9.32
2023-05-01T18:15:14.698Z,9.55
2023-05-01T18:17:43.935Z,8.98
2023-05-01T18:20:10.857Z,10.48
2023-05-01T18:22:37.581Z,9.60
2023-05-01T18:25:05.355Z,10.82
2023-05-01T18:27:32.074Z,10.23
2023-05-01T18:29:58.828Z,10.77
2023-05-01T18:32:35.874Z,10.07
2023-05-01T18:35:06.365Z,9.90
2023-05-01T18:37:33.099Z,10.13
2023-05-01T18:40:00.278Z,10.55
2023-05-01T18:42:27.000Z,10.98
2023-05-01T18:44:56.683Z,11.20
2023-05-01T18:47:23.208Z,10.90
2023-05-01T18:49:49.650Z,11.48
2023-05-01T18:52:16.070Z,11.25
2023-05-01T18:54:42.494Z,11.93
2023-05-01T18:57:08.902Z,11.75
2023-05-01T18:59:35.354Z,11.73
2023-05-01T19:02:03.084Z,12.60
2023-05-01T19:04:30.887Z,12.52
2023-05-01T19:06:57.435Z,12.60
2023-05-01T19:09:23.895Z,12.85
2023-05-01T19:11:50.431Z,13.63
2023-05-01T19:14:16.924Z,13.20
2023-05-01T19:16:43.488Z,13.00
2023-05-01T19:19:10.476Z,13.15
2023-05-01T19:21:36.898Z,14.48
2023-05-01T19:24:03.394Z,14.43
2023-05-01T19:26:29.851Z,13.80
2023-05-01T19:28:56.293Z,14.27
2023-05-01T19:31:25.092Z,13.77
2023-05-01T19:33:53.723Z,15.13
2023-05-01T19:36:21.190Z,14.60
2023-05-01T19:38:47.784Z,14.70
2023-05-01T19:41:14.420Z,14.23
2023-05-01T19:43:40.873Z,13.60
2023-05-01T19:46:07.487Z,15.27
2023-05-01T19:48:34.276Z,15.73
2023-05-01T19:51:00.721Z,14.73
2023-05-01T19:53:31.147Z,15.55
2023-05-01T19:55:57.968Z,14.02
2023-05-01T19:58:26.674Z,15.07
2023-05-01T20:00:58.102Z,14.97
2023-05-01T20:03:24.781Z,14.55
2023-05-01T20:05:51.327Z,15.43
2023-05-01T20:08:17.814Z,15.05
2023-05-01T20:10:44.371Z,14.65
2023-05-01T20:13:11.104Z,15.17
2023-05-01T20:15:38.682Z,15.02
2023-05-01T20:18:06.067Z,15.32
2023-05-01T20:20:33.646Z,13.98
2023-05-01T20:23:17.632Z,14.98
2023-05-01T20:25:46.316Z,14.30
2023-05-01T20:28:14.773Z,15.80
2023-05-01T20:30:43.513Z,15.23
2023-05-01T20:33:10.751Z,16.25
2023-05-01T20:35:38.296Z,16.15
2023-05-01T20:38:04.885Z,16.53
2023-05-01T20:40:32.214Z,16.17
2023-05-01T20:42:59.862Z,16.35
2023-05-01T20:45:27.304Z,16.20
2023-05-01T20:47:53.923Z,16.70
2023-05-01T20:50:20.619Z,17.30
2023-05-01T20:52:47.202Z,15.45
2023-05-01T20:55:13.649Z,15.57
2023-05-01T20:57:40.205Z,15.32
2023-05-01T21:00:07.967Z,13.52
2023-05-01T21:02:38.016Z,13.87
2023-05-01T21:05:05.713Z,13.73
2023-05-01T21:07:32.195Z,14.52
2023-05-01T21:09:58.872Z,13.73
2023-05-01T21:12:25.638Z,13.02
2023-05-01T21:14:52.148Z,13.83
2023-05-01T21:17:19.041Z,13.85
2023-05-01T21:19:47.070Z,13.30
2023-05-01T21:22:16.336Z,12.70
2023-05-01T21:24:45.062Z,12.73
2023-05-01T21:27:12.398Z,11.97
2023-05-01T21:29:40.408Z,11.32
2023-05-01T21:32:08.441Z,11.27
2023-05-01T21:34:35.601Z,12.10
2023-05-01T21:37:02.171Z,10.75
2023-05-01T21:39:30.303Z,10.03
2023-05-01T21:41:56.744Z,10.65
2023-05-01T21:44:28.625Z,10.40
2023-05-01T21:46:56.382Z,10.98
2023-05-01T21:49:26.966Z,10.73
2023-05-01T21:51:54.044Z,10.47
2023-05-01T21:54:21.725Z,10.30
2023-05-01T21:56:48.539Z,11.93
2023-05-01T21:59:17.272Z,9.52
2023-05-01T22:01:44.708Z,11.10
2023-05-01T22:04:17.018Z,9.97
2023-05-01T22:06:43.623Z,10.43
2023-05-01T22:09:11.137Z,11.38
2023-05-01T22:11:37.571Z,9.48
2023-05-01T22:14:04.056Z,9.88
2023-05-01T22:16:30.529Z,10.03
2023-05-01T22:18:57.355Z,9.07
2023-05-01T22:21:23.790Z,9.68
2023-05-01T22:23:50.378Z,9.23
2023-05-01T22:26:16.818Z,9.32
2023-05-01T22:28:43.446Z,8.23
2023-05-01T22:31:09.935Z,9.48
2023-05-01T22:33:36.933Z,8.77
2023-05-01T22:36:06.019Z,8.35
2023-05-01T22:38:33.866Z,8.02
2023-05-01T22:41:00.308Z,8.27
2023-05-01T22:43:26.723Z,7.45
2023-05-01T22:45:53.164Z,7.07
2023-05-01T22:48:19.660Z,7.55
2023-05-01T22:50:46.217Z,8.00
2023-05-01T22:53:12.804Z,8.20
2023-05-01T22:55:39.219Z,8.82
2023-05-01T22:58:05.668Z,8.48
2023-05-01T23:00:32.306Z,8.95
2023-05-01T23:03:00.292Z,8.73
2023-05-01T23:05:26.788Z,7.70
2023-05-01T23:07:53.244Z,7.93
2023-05-01T23:10:23.059Z,7.45
2023-05-01T23:12:49.512Z,7.63
2023-05-01T23:15:22.397Z,9.73
2023-05-01T23:17:48.894Z,9.07
2023-05-01T23:20:22.524Z,9.20
2023-05-01T23:22:49.622Z,9.05
2023-05-01T23:25:25.479Z,8.43
2023-05-01T23:27:55.032Z,9.93
2023-05-01T23:30:22.247Z,8.17
2023-05-01T23:32:49.229Z,8.77
2023-05-01T23:35:20.897Z,7.95
2023-05-01T23:37:47.363Z,9.18
2023-05-01T23:40:13.798Z,9.45
2023-05-01T23:42:40.437Z,9.57
2023-05-01T23:45:08.114Z,9.60
2023-05-01T23:47:34.972Z,10.27
2023-05-01T23:50:02.101Z,11.20
2023-05-01T23:52:28.923Z,11.13
2023-05-01T23:54:55.611Z,10.93
2023-05-01T23:57:22.219Z,10.85
2023-05-01T23:59:48.661Z,11.60
